Index of /debian-ports/pool-kfreebsd-amd64/main/k

[ICO]NameLast modifiedSize

[PARENTDIR]Parent Directory  -
[DIR]k2pdfopt/2019-05-16 07:33 -
[DIR]k3b/2019-05-16 07:33 -
[DIR]k3d/2019-09-03 20:13 -
[DIR]k4dirstat/2019-05-16 07:33 -
[DIR]k8temp/2019-05-29 07:38 -
[DIR]kaccounts-integration/2019-05-16 07:33 -
[DIR]kaccounts-providers/2019-05-16 07:33 -
[DIR]kactivities-kf5/2019-05-16 07:33 -
[DIR]kactivities-stats/2019-05-16 07:33 -
[DIR]kactivitymanagerd/2019-05-16 07:33 -
[DIR]kadu-mime-tex/2019-05-16 07:33 -
[DIR]kadu/2019-05-16 07:33 -
[DIR]kafkacat/2019-10-04 19:53 -
[DIR]kakasi/2019-05-16 07:33 -
[DIR]kakoune/2019-10-07 01:59 -
[DIR]kalgebra/2019-05-16 07:33 -
[DIR]kali/2019-05-16 07:33 -
[DIR]kalign/2019-05-16 07:33 -
[DIR]kallisto/2019-08-07 20:03 -
[DIR]kamera/2019-05-16 07:33 -
[DIR]kanagram/2019-05-16 07:33 -
[DIR]kanatest/2019-05-16 07:33 -
[DIR]kanjipad/2019-05-16 07:33 -
[DIR]kannel-sqlbox/2019-05-16 07:33 -
[DIR]kannel/2019-05-16 07:33 -
[DIR]kapman/2019-05-16 07:33 -
[DIR]kapptemplate/2019-05-16 07:33 -
[DIR]karchive/2019-05-16 07:33 -
[DIR]kasumi/2019-05-16 07:33 -
[DIR]katarakt/2019-05-16 07:33 -
[DIR]katomic/2019-05-16 07:33 -
[DIR]kauth/2019-05-16 07:33 -
[DIR]kawari8/2019-09-01 14:01 -
[DIR]kball/2019-05-16 07:33 -
[DIR]kbdd/2019-05-16 07:33 -
[DIR]kbibtex/2019-05-16 07:33 -
[DIR]kblackbox/2019-05-16 07:33 -
[DIR]kblocks/2019-05-16 07:33 -
[DIR]kbookmarks/2019-05-16 07:33 -
[DIR]kbounce/2019-05-16 07:33 -
[DIR]kbreakout/2019-05-16 07:33 -
[DIR]kbruch/2019-05-16 07:33 -
[DIR]kbtin/2019-05-16 07:33 -
[DIR]kbuild/2019-07-08 02:13 -
[DIR]kcachegrind/2019-05-16 07:33 -
[DIR]kcalc/2019-05-16 07:33 -
[DIR]kcc/2019-05-16 07:33 -
[DIR]kcharselect/2019-05-16 07:33 -
[DIR]kcheckers/2019-05-16 07:33 -
[DIR]kcm-fcitx/2019-05-16 07:33 -
[DIR]kcm-ufw/2019-05-16 07:33 -
[DIR]kcmutils/2019-05-16 07:33 -
[DIR]kcodecs/2019-05-16 07:33 -
[DIR]kcolorchooser/2019-05-16 07:33 -
[DIR]kcompletion/2019-05-16 07:33 -
[DIR]kconfig/2019-05-16 07:33 -
[DIR]kconfigwidgets/2019-05-16 07:33 -
[DIR]kcontacts/2019-05-16 07:33 -
[DIR]kcoreaddons/2019-05-16 07:33 -
[DIR]kcrash/2019-05-16 07:33 -
[DIR]kcron/2019-05-16 07:33 -
[DIR]kdav/2019-05-16 07:33 -
[DIR]kdb/2019-05-16 07:33 -
[DIR]kdbusaddons/2019-05-16 07:33 -
[DIR]kdc2tiff/2019-05-16 07:33 -
[DIR]kde-dev-utils/2019-05-16 07:34 -
[DIR]kde-gtk-config/2019-05-16 07:34 -
[DIR]kde-spectacle/2019-05-16 07:34 -
[DIR]kdebugsettings/2019-05-16 07:34 -
[DIR]kdeclarative/2019-05-16 07:34 -
[DIR]kdecoration/2019-05-16 07:34 -
[DIR]kded/2019-05-16 07:34 -
[DIR]kdegraphics-mobipocket/2019-05-16 07:34 -
[DIR]kdegraphics-thumbnailers/2019-05-16 07:34 -
[DIR]kdenetwork-filesharing/2019-05-16 07:34 -
[DIR]kdenlive/2019-05-16 07:34 -
[DIR]kdeplasma-addons/2019-05-16 07:34 -
[DIR]kdesdk-kioslaves/2019-05-16 07:34 -
[DIR]kdesdk-thumbnailers/2019-05-16 07:34 -
[DIR]kdesignerplugin/2019-05-16 07:34 -
[DIR]kdesu/2019-05-16 07:34 -
[DIR]kdesvn/2019-05-16 07:34 -
[DIR]kdevelop-pg-qt/2019-05-16 07:34 -
[DIR]kdewebkit/2019-05-16 07:34 -
[DIR]kdf/2019-05-16 07:34 -
[DIR]kdiagram/2019-05-16 07:34 -
[DIR]kdiamond/2019-05-16 07:34 -
[DIR]kdiff3/2019-05-16 07:34 -
[DIR]kdnssd-kf5/2019-05-16 07:34 -
[DIR]kdocker/2019-05-16 07:34 -
[DIR]kdoctools/2019-05-16 07:34 -
[DIR]kdrill/2019-05-16 07:34 -
[DIR]keepassx/2019-07-21 08:12 -
[DIR]keepassxc/2019-05-16 07:34 -
[DIR]kelbt/2019-05-16 07:34 -
[DIR]kemoticons/2019-05-16 07:34 -
[DIR]kernsmooth/2019-10-17 01:50 -
[DIR]ketm/2019-05-16 07:34 -
[DIR]keurocalc/2019-05-16 07:34 -
[DIR]keybinder-3.0/2019-05-16 07:34 -
[DIR]keybinder/2019-05-16 07:34 -
[DIR]keylaunch/2019-05-16 07:34 -
[DIR]keyman-keyboardprocessor/2019-09-30 02:03 -
[DIR]keynav/2019-05-16 07:34 -
[DIR]kf5-kdepim-apps-libs/2019-05-16 07:34 -
[DIR]kfilemetadata-kf5/2019-05-16 07:34 -
[DIR]kfloppy/2019-05-16 07:34 -
[DIR]kfourinline/2019-05-16 07:34 -
[DIR]kfreebsd-10/2019-05-16 07:34 -
[DIR]kfreebsd-11/2019-05-16 07:34 -
[DIR]kfreebsd-kernel-headers/2019-05-29 07:38 -
[DIR]kgb/2019-05-16 07:34 -
[DIR]kgeography/2019-05-16 07:34 -
[DIR]kglobalaccel/2019-05-16 07:34 -
[DIR]kgoldrunner/2019-05-16 07:34 -
[DIR]kguiaddons/2019-05-16 07:34 -
[DIR]khangman/2019-05-16 07:34 -
[DIR]khard/2019-05-16 07:34 -
[DIR]khelpcenter/2019-05-16 07:34 -
[DIR]kholidays/2019-05-16 07:34 -
[DIR]khtml/2019-05-16 07:34 -
[DIR]ki18n/2019-05-16 07:34 -
[DIR]kickpass/2019-05-16 07:34 -
[DIR]kiconthemes/2019-05-16 07:34 -
[DIR]kid3/2019-05-16 07:34 -
[DIR]kidentitymanagement/2019-05-16 07:34 -
[DIR]kidletime/2019-05-16 07:34 -
[DIR]kig/2019-05-16 07:34 -
[DIR]kigo/2019-05-16 07:34 -
[DIR]kiki-the-nano-bot/2019-05-16 07:34 -
[DIR]kildclient/2019-05-16 07:34 -
[DIR]killbots/2019-05-16 07:34 -
[DIR]kim-api/2019-05-16 07:34 -
[DIR]kimageformats/2019-05-16 07:34 -
[DIR]kimap/2019-05-16 07:34 -
[DIR]kimwitu++/2019-05-16 07:34 -
[DIR]kimwitu/2019-05-16 07:34 -
[DIR]kineticstools/2019-05-16 07:34 -
[DIR]king-probe/2019-05-16 07:34 -
[DIR]kinit/2019-05-16 07:34 -
[DIR]kinput2/2019-05-16 07:34 -
[DIR]kio-gopher/2019-05-16 07:34 -
[DIR]kio/2019-05-16 07:34 -
[DIR]kirigami2/2019-05-16 07:34 -
[DIR]kiriki/2019-05-16 07:34 -
[DIR]kismet/2019-05-16 07:34 -
[DIR]kissplice/2019-08-15 02:06 -
[DIR]kitemmodels/2019-05-16 07:34 -
[DIR]kitemviews/2019-05-16 07:34 -
[DIR]kiten/2019-05-16 07:34 -
[DIR]kitty/2019-11-12 07:54 -
[DIR]kivy/2019-08-10 20:10 -
[DIR]kiwisolver/2019-05-16 07:34 -
[DIR]kjobwidgets/2019-05-16 07:34 -
[DIR]kjots/2019-05-16 07:34 -
[DIR]kjs/2019-05-16 07:34 -
[DIR]kjsembed/2019-05-16 07:34 -
[DIR]kjumpingcube/2019-05-16 07:34 -
[DIR]klatexformula/2019-05-16 07:34 -
[DIR]klavaro/2019-05-16 07:34 -
[DIR]kldap/2019-05-16 07:34 -
[DIR]kleopatra/2019-05-16 07:34 -
[DIR]klettres/2019-05-16 07:34 -
[DIR]klick/2019-05-16 07:34 -
[DIR]klickety/2019-05-16 07:34 -
[DIR]klines/2019-05-16 07:34 -
[DIR]klog/2019-05-16 07:34 -
[DIR]klustakwik/2019-05-16 07:34 -
[DIR]klystrack/2019-05-16 07:34 -
[DIR]kma/2019-09-23 13:53 -
[DIR]kmag/2019-05-16 07:34 -
[DIR]kmahjongg/2019-05-16 07:34 -
[DIR]kmailtransport/2019-05-16 07:34 -
[DIR]kmbox/2019-05-16 07:34 -
[DIR]kmc/2019-05-16 07:34 -
[DIR]kmediaplayer/2019-05-16 07:34 -
[DIR]kmerresistance/2019-06-24 13:57 -
[DIR]kmflcomp/2019-05-16 07:34 -
[DIR]kmime/2019-05-16 07:34 -
[DIR]kmines/2019-05-16 07:34 -
[DIR]kmousetool/2019-05-16 07:34 -
[DIR]kmouth/2019-05-16 07:34 -
[DIR]knavalbattle/2019-05-16 07:34 -
[DIR]knetwalk/2019-05-16 07:34 -
[DIR]knews/2019-05-16 07:34 -
[DIR]knewstuff/2019-05-16 07:34 -
[DIR]knockd/2019-05-16 07:34 -
[DIR]knocker/2019-05-16 07:34 -
[DIR]knot-resolver/2019-05-16 07:34 -
[DIR]knot/2019-05-16 07:34 -
[DIR]knotifications/2019-05-16 07:34 -
[DIR]knotifyconfig/2019-05-16 07:34 -
[DIR]kobodeluxe/2019-05-16 07:34 -
[DIR]kollision/2019-05-16 07:34 -
[DIR]komi/2019-05-16 07:34 -
[DIR]kompare/2019-05-16 07:34 -
[DIR]konclude/2019-05-16 07:34 -
[DIR]konquest/2019-05-16 07:34 -
[DIR]konsole/2019-05-16 07:34 -
[DIR]kontactinterface/2019-05-16 07:34 -
[DIR]konversation/2019-05-16 07:34 -
[DIR]konwert/2019-05-16 07:34 -
[DIR]kookbook/2019-05-16 07:34 -
[DIR]koules/2019-10-03 08:01 -
[DIR]kpackage/2019-05-16 07:34 -
[DIR]kparts/2019-05-16 07:34 -
[DIR]kpat/2019-05-16 07:34 -
[DIR]kpeople/2019-05-16 07:34 -
[DIR]kphotoalbum/2019-05-16 07:34 -
[DIR]kpimtextedit/2019-05-16 07:34 -
[DIR]kplotting/2019-05-16 07:34 -
[DIR]kproperty/2019-05-16 07:34 -
[DIR]kpty/2019-05-16 07:34 -
[DIR]kqtquickcharts/2019-05-16 07:34 -
[DIR]kraken/2019-08-01 20:06 -
[DIR]kraken2/2019-08-01 20:06 -
[DIR]kraptor/2019-05-16 07:34 -
[DIR]krb5-strength/2019-05-16 07:34 -
[DIR]krb5-sync/2019-05-16 07:34 -
[DIR]krb5/2019-08-02 01:58 -
[DIR]krdc/2019-05-16 07:34 -
[DIR]kreport/2019-05-16 07:34 -
[DIR]kreversi/2019-05-16 07:34 -
[DIR]krfb/2019-05-16 07:34 -
[DIR]krita/2019-05-16 07:34 -
[DIR]kronometer/2019-05-16 07:34 -
[DIR]kross-interpreters/2019-05-16 07:34 -
[DIR]kross/2019-05-16 07:34 -
[DIR]kruler/2019-05-16 07:34 -
[DIR]krunner/2019-05-16 07:34 -
[DIR]krusader/2019-05-16 07:34 -
[DIR]kservice/2019-05-16 07:34 -
[DIR]ksh/2019-10-10 19:48 -
[DIR]kshisen/2019-05-16 07:34 -
[DIR]ksmtuned/2019-05-16 07:34 -
[DIR]ksnakeduel/2019-05-16 07:34 -
[DIR]kspaceduel/2019-05-16 07:34 -
[DIR]ksquares/2019-05-16 07:34 -
[DIR]ksshaskpass/2019-05-16 07:34 -
[DIR]kstart/2019-05-16 07:34 -
[DIR]ksudoku/2019-05-16 07:34 -
[DIR]ksyntax-highlighting/2019-05-16 07:34 -
[DIR]ksystemlog/2019-05-16 07:34 -
[DIR]kteatime/2019-05-16 07:34 -
[DIR]ktextwidgets/2019-05-16 07:34 -
[DIR]ktikz/2019-05-16 07:34 -
[DIR]ktimer/2019-05-16 07:34 -
[DIR]ktorrent/2019-05-16 07:34 -
[DIR]ktouch/2019-05-16 07:34 -
[DIR]ktp-accounts-kcm/2019-05-16 07:34 -
[DIR]ktp-approver/2019-05-16 07:34 -
[DIR]ktp-auth-handler/2019-05-16 07:34 -
[DIR]ktp-common-internals/2019-05-16 07:34 -
[DIR]ktp-contact-list/2019-05-16 07:34 -
[DIR]ktp-contact-runner/2019-05-16 07:34 -
[DIR]ktp-desktop-applets/2019-05-16 07:34 -
[DIR]ktp-filetransfer-handler/2019-05-16 07:34 -
[DIR]ktp-kded-integration-module/2019-05-16 07:34 -
[DIR]ktp-send-file/2019-05-16 07:34 -
[DIR]kturtle/2019-05-16 07:34 -
[DIR]kubrick/2019-05-16 07:34 -
[DIR]kunitconversion/2019-05-16 07:34 -
[DIR]kuvert/2019-05-16 07:34 -
[DIR]kvirc/2019-05-16 07:34 -
[DIR]kwallet-kf5/2019-05-16 07:34 -
[DIR]kwallet-pam/2019-05-16 07:34 -
[DIR]kwalletcli/2019-05-16 07:34 -
[DIR]kwalletmanager/2019-05-16 07:34 -
[DIR]kwave/2019-05-16 07:34 -
[DIR]kwidgetsaddons/2019-05-16 07:34 -
[DIR]kwindowsystem/2019-05-16 07:34 -
[DIR]kwrited/2019-05-16 07:34 -
[DIR]kwstyle/2019-05-16 07:34 -
[DIR]kxl/2019-05-16 07:34 -
[DIR]kxmlgui/2019-05-16 07:34 -
[DIR]kxmlrpcclient/2019-05-16 07:34 -
[DIR]kxstitch/2019-05-16 07:34 -
[DIR]kylin-burner/2019-05-16 07:34 -
[DIR]kylin-display-switch/2019-05-16 07:34 -
[DIR]kyotocabinet/2019-05-16 07:34 -
[DIR]kytea/2019-05-16 07:34 -

Apache Server at ftp.ports.debian.org Port 80